Time;durP1;ratioP1;P1;durP2;ratioP2;P2;SDS_P1;SDS_P2;PMS_P1;PMS_P2;Temp;Humidity;BMP_temperature;BMP_pressure;BME280_temperature;BME280_humidity;BME280_pressure;Samples;Min_cycle;Max_cycle;Signal;HPM_P1;HPM_P2
2024/03/01 00:00:30;;;;;;;26.67;14.18;;;;;;;;;;5018934;28;20532;-66
2024/03/01 00:02:56;;;;;;;26.45;13.30;;;;;;;;;;5020044;28;20478;-66
2024/03/01 00:05:22;;;;;;;24.95;14.40;;;;;;;;;;5033353;28;20120;-66
2024/03/01 00:07:49;;;;;;;25.90;12.95;;;;;;;;;;5029229;28;20053;-66
2024/03/01 00:10:15;;;;;;;19.20;11.57;;;;;;;;;;5030082;28;20041;-66
2024/03/01 00:12:41;;;;;;;20.45;12.25;;;;;;;;;;5024250;28;20132;-66
2024/03/01 00:15:07;;;;;;;21.27;12.20;;;;;;;;;;5026922;28;20446;-66
2024/03/01 00:17:34;;;;;;;20.70;10.95;;;;;;;;;;5003426;28;20061;-66
2024/03/01 00:20:01;;;;;;;19.25;12.20;;;;;;;;;;5010869;28;20110;-66
2024/03/01 00:22:27;;;;;;;21.70;11.70;;;;;;;;;;5037019;28;20178;-66
2024/03/01 00:24:54;;;;;;;22.92;11.40;;;;;;;;;;5031961;28;20044;-66
2024/03/01 00:27:20;;;;;;;21.30;12.15;;;;;;;;;;5025103;28;20533;-66
2024/03/01 00:29:46;;;;;;;23.50;13.55;;;;;;;;;;5026110;28;20052;-66
2024/03/01 00:32:12;;;;;;;27.20;12.85;;;;;;;;;;5028598;28;20485;-66
2024/03/01 00:34:39;;;;;;;27.30;12.82;;;;;;;;;;5028510;28;20401;-66
2024/03/01 00:37:05;;;;;;;25.50;12.57;;;;;;;;;;5037698;28;20116;-66
2024/03/01 00:39:31;;;;;;;23.83;12.93;;;;;;;;;;5038400;28;20464;-66
2024/03/01 00:41:57;;;;;;;24.02;12.57;;;;;;;;;;5027617;28;20056;-66
2024/03/01 00:44:23;;;;;;;24.15;12.75;;;;;;;;;;5027722;28;20042;-66
2024/03/01 00:46:49;;;;;;;23.52;13.02;;;;;;;;;;5029524;28;20057;-66
2024/03/01 00:49:16;;;;;;;23.48;12.85;;;;;;;;;;5030043;28;20074;-66
2024/03/01 00:51:42;;;;;;;25.05;12.95;;;;;;;;;;5029382;28;20037;-66
2024/03/01 00:54:08;;;;;;;26.90;13.80;;;;;;;;;;5029631;28;20061;-66
2024/03/01 00:56:35;;;;;;;24.35;12.20;;;;;;;;;;5025558;28;20157;-66
2024/03/01 00:59:01;;;;;;;22.60;12.57;;;;;;;;;;5021101;28;20046;-66
2024/03/01 01:01:27;;;;;;;23.10;12.02;;;;;;;;;;5026877;28;20041;-66
2024/03/01 01:03:53;;;;;;;27.25;12.82;;;;;;;;;;5007723;28;20049;-66
2024/03/01 01:06:19;;;;;;;23.92;13.25;;;;;;;;;;5005910;28;20042;-66
2024/03/01 01:08:45;;;;;;;19.63;11.02;;;;;;;;;;4995563;28;20065;-66
2024/03/01 01:11:12;;;;;;;21.10;12.23;;;;;;;;;;4997950;28;20324;-66
2024/03/01 01:13:38;;;;;;;25.30;12.50;;;;;;;;;;5002383;28;20049;-66
2024/03/01 01:16:04;;;;;;;22.98;12.45;;;;;;;;;;5014659;28;20048;-66
2024/03/01 01:18:30;;;;;;;22.35;11.65;;;;;;;;;;5019693;28;20438;-66
2024/03/01 01:20:56;;;;;;;22.33;11.30;;;;;;;;;;5018984;28;20392;-66
2024/03/01 01:23:23;;;;;;;23.50;11.30;;;;;;;;;;5015603;28;20474;-66
2024/03/01 01:25:49;;;;;;;19.67;11.18;;;;;;;;;;5021234;28;20120;-66
2024/03/01 01:28:15;;;;;;;19.05;10.95;;;;;;;;;;5023156;28;20080;-66
2024/03/01 01:30:45;;;;;;;19.00;11.45;;;;;;;;;;5026313;28;20041;-66
2024/03/01 01:33:11;;;;;;;18.00;10.68;;;;;;;;;;5029019;28;20133;-66
2024/03/01 01:35:39;;;;;;;18.38;10.32;;;;;;;;;;5027631;28;20047;-66
2024/03/01 01:38:05;;;;;;;17.60;9.95;;;;;;;;;;5020524;28;20046;-66
2024/03/01 01:40:32;;;;;;;16.98;9.52;;;;;;;;;;5023522;28;20077;-66
2024/03/01 01:42:58;;;;;;;23.73;9.90;;;;;;;;;;5020249;28;20046;-66
2024/03/01 01:45:25;;;;;;;17.67;9.93;;;;;;;;;;5015720;28;20045;-66
2024/03/01 01:47:51;;;;;;;16.10;9.05;;;;;;;;;;5016832;28;20037;-66
2024/03/01 01:50:18;;;;;;;16.02;9.43;;;;;;;;;;5018980;28;20397;-66
2024/03/01 01:52:45;;;;;;;17.45;9.30;;;;;;;;;;5020159;28;20740;-66
2024/03/01 01:55:11;;;;;;;15.15;9.15;;;;;;;;;;5028427;28;20133;-66
2024/03/01 01:57:39;;;;;;;19.05;10.43;;;;;;;;;;5019751;28;20100;-66
2024/03/01 02:00:06;;;;;;;14.75;8.77;;;;;;;;;;5014376;28;20740;-66
2024/03/01 02:02:34;;;;;;;17.35;9.23;;;;;;;;;;5002780;28;20432;-66
2024/03/01 02:05:00;;;;;;;16.60;9.82;;;;;;;;;;5015373;28;20037;-66
2024/03/01 02:07:27;;;;;;;14.43;9.27;;;;;;;;;;5029358;28;20041;-66
2024/03/01 02:09:53;;;;;;;14.98;9.77;;;;;;;;;;5019451;28;20742;-66
2024/03/01 02:12:21;;;;;;;15.52;9.05;;;;;;;;;;5015594;28;20053;-66
2024/03/01 02:14:48;;;;;;;15.73;8.75;;;;;;;;;;5013621;28;20057;-66
2024/03/01 02:17:14;;;;;;;19.50;9.20;;;;;;;;;;5013737;28;20506;-66
2024/03/01 02:19:40;;;;;;;17.27;10.30;;;;;;;;;;5014147;28;20041;-66
2024/03/01 02:22:09;;;;;;;15.70;9.05;;;;;;;;;;5015116;28;20096;-66
2024/03/01 02:24:36;;;;;;;14.20;8.68;;;;;;;;;;5013710;28;20045;-66
2024/03/01 02:27:02;;;;;;;13.88;8.73;;;;;;;;;;4992442;28;20045;-66
2024/03/01 02:29:28;;;;;;;14.00;9.15;;;;;;;;;;5015725;28;20058;-66
2024/03/01 02:31:56;;;;;;;12.88;8.52;;;;;;;;;;5017203;28;20049;-66
2024/03/01 02:34:23;;;;;;;13.50;8.80;;;;;;;;;;5017116;28;20049;-66
2024/03/01 02:36:49;;;;;;;14.52;9.43;;;;;;;;;;5000104;28;20618;-66
2024/03/01 02:39:18;;;;;;;13.27;8.13;;;;;;;;;;5027665;28;20048;-66
2024/03/01 02:41:48;;;;;;;12.90;7.35;;;;;;;;;;5026926;28;20041;-66
2024/03/01 02:44:14;;;;;;;12.75;7.80;;;;;;;;;;5023766;28;20136;-66
2024/03/01 02:46:40;;;;;;;13.95;8.65;;;;;;;;;;5024675;28;20048;-66
2024/03/01 02:49:07;;;;;;;13.43;7.95;;;;;;;;;;5027466;28;20438;-66
2024/03/01 02:51:33;;;;;;;11.82;7.55;;;;;;;;;;5030775;28;20080;-66
2024/03/01 02:53:59;;;;;;;11.20;7.95;;;;;;;;;;5024731;28;20501;-66
2024/03/01 02:56:25;;;;;;;11.75;7.60;;;;;;;;;;5023331;28;20133;-66
2024/03/01 02:58:52;;;;;;;13.38;7.57;;;;;;;;;;5044199;28;20060;-66
2024/03/01 03:01:21;;;;;;;14.38;7.68;;;;;;;;;;5025592;28;20392;-66
2024/03/01 03:03:47;;;;;;;12.57;8.23;;;;;;;;;;5023041;28;20412;-66
2024/03/01 03:06:13;;;;;;;13.77;8.20;;;;;;;;;;5023986;28;20045;-66
2024/03/01 03:08:39;;;;;;;12.20;7.70;;;;;;;;;;5027479;28;20049;-66
2024/03/01 03:11:06;;;;;;;13.02;8.15;;;;;;;;;;5021914;28;20120;-66
2024/03/01 03:13:32;;;;;;;13.77;7.82;;;;;;;;;;5019914;28;20053;-66
2024/03/01 03:15:58;;;;;;;14.40;6.85;;;;;;;;;;5022699;28;20042;-66
2024/03/01 03:18:24;;;;;;;15.55;7.85;;;;;;;;;;5028747;28;20369;-66
2024/03/01 03:20:50;;;;;;;11.88;8.30;;;;;;;;;;5032744;28;20061;-66
2024/03/01 03:23:17;;;;;;;11.07;7.65;;;;;;;;;;5027957;28;20050;-66
2024/03/01 03:25:43;;;;;;;11.18;7.57;;;;;;;;;;5028892;28;20132;-66
2024/03/01 03:28:10;;;;;;;14.00;8.02;;;;;;;;;;5030444;28;20049;-67
2024/03/01 03:30:36;;;;;;;15.35;8.00;;;;;;;;;;5027722;28;20155;-66
2024/03/01 03:33:03;;;;;;;14.25;8.05;;;;;;;;;;5028226;28;20049;-66
2024/03/01 03:35:29;;;;;;;11.65;8.02;;;;;;;;;;5029515;28;20485;-66
2024/03/01 03:37:56;;;;;;;12.57;8.60;;;;;;;;;;5025353;28;20088;-66
2024/03/01 03:40:22;;;;;;;12.85;7.70;;;;;;;;;;5027642;28;20099;-66
2024/03/01 03:42:48;;;;;;;13.40;7.78;;;;;;;;;;5027797;28;20049;-66
2024/03/01 03:45:14;;;;;;;13.40;7.43;;;;;;;;;;5021341;28;21489;-66
2024/03/01 03:47:40;;;;;;;12.38;8.13;;;;;;;;;;5025327;28;20464;-66
2024/03/01 03:50:07;;;;;;;12.45;8.43;;;;;;;;;;5019505;28;20041;-66
2024/03/01 03:52:34;;;;;;;12.70;7.82;;;;;;;;;;5022065;28;20080;-66
2024/03/01 03:55:00;;;;;;;14.38;8.07;;;;;;;;;;5021579;28;20445;-66
2024/03/01 03:57:27;;;;;;;13.15;8.60;;;;;;;;;;5023495;28;20053;-66
2024/03/01 03:59:53;;;;;;;12.52;8.48;;;;;;;;;;5023475;28;20495;-66
2024/03/01 04:02:19;;;;;;;11.48;8.15;;;;;;;;;;5025181;28;20050;-66
2024/03/01 04:04:45;;;;;;;12.50;7.82;;;;;;;;;;5040524;28;20412;-66
2024/03/01 04:07:11;;;;;;;14.65;8.57;;;;;;;;;;5023923;28;20041;-66
2024/03/01 04:09:38;;;;;;;12.20;8.52;;;;;;;;;;5021676;28;20500;-66
2024/03/01 04:12:05;;;;;;;14.25;8.38;;;;;;;;;;5022610;28;20102;-66
2024/03/01 04:14:32;;;;;;;13.95;8.57;;;;;;;;;;5029531;28;20053;-66
2024/03/01 04:16:58;;;;;;;13.38;7.30;;;;;;;;;;5031033;28;20037;-66
2024/03/01 04:19:25;;;;;;;12.65;7.78;;;;;;;;;;5032252;28;20057;-66
2024/03/01 04:21:52;;;;;;;16.25;8.20;;;;;;;;;;5022799;28;20509;-66
2024/03/01 04:24:19;;;;;;;12.85;8.68;;;;;;;;;;5022779;28;20386;-66
2024/03/01 04:26:45;;;;;;;15.05;9.23;;;;;;;;;;5023783;28;20049;-66
2024/03/01 04:29:11;;;;;;;14.70;7.95;;;;;;;;;;5019581;28;20058;-66
2024/03/01 04:31:40;;;;;;;13.27;8.38;;;;;;;;;;5014386;28;20516;-66
2024/03/01 04:34:06;;;;;;;13.35;8.65;;;;;;;;;;5010284;28;20057;-66
2024/03/01 04:36:33;;;;;;;14.38;8.43;;;;;;;;;;4999874;28;20054;-66
2024/03/01 04:38:59;;;;;;;13.52;8.57;;;;;;;;;;5016206;28;20141;-66
2024/03/01 04:41:25;;;;;;;16.10;8.63;;;;;;;;;;4979536;28;20596;-66
2024/03/01 04:43:51;;;;;;;12.35;8.77;;;;;;;;;;5017687;28;20050;-66
2024/03/01 04:46:18;;;;;;;13.57;8.75;;;;;;;;;;5019602;28;20034;-66
2024/03/01 04:48:44;;;;;;;15.30;8.75;;;;;;;;;;4984033;28;20053;-66
2024/03/01 04:51:13;;;;;;;14.52;9.18;;;;;;;;;;5003123;28;20045;-66
2024/03/01 04:53:39;;;;;;;14.00;9.43;;;;;;;;;;4992758;28;20077;-66
2024/03/01 04:56:08;;;;;;;18.20;8.95;;;;;;;;;;4996571;28;20040;-66
2024/03/01 04:58:35;;;;;;;13.70;8.93;;;;;;;;;;5011986;28;20738;-66
2024/03/01 05:01:01;;;;;;;15.05;9.93;;;;;;;;;;5013543;28;20038;-66
2024/03/01 05:03:29;;;;;;;14.50;9.32;;;;;;;;;;4997380;28;20136;-66
2024/03/01 05:05:56;;;;;;;17.23;9.68;;;;;;;;;;5000851;28;20042;-66
2024/03/01 05:08:22;;;;;;;17.73;10.55;;;;;;;;;;5000189;28;20049;-66
2024/03/01 05:10:50;;;;;;;19.30;10.82;;;;;;;;;;5020533;28;20072;-66
2024/03/01 05:13:17;;;;;;;16.00;10.68;;;;;;;;;;5021495;28;20041;-66
2024/03/01 05:15:43;;;;;;;16.75;10.68;;;;;;;;;;5001798;28;20072;-66
2024/03/01 05:18:11;;;;;;;18.13;11.32;;;;;;;;;;5016187;28;20457;-66
2024/03/01 05:20:37;;;;;;;17.73;10.90;;;;;;;;;;5013447;28;20137;-66
2024/03/01 05:23:03;;;;;;;21.92;11.93;;;;;;;;;;4995556;28;20125;-66
2024/03/01 05:25:30;;;;;;;18.75;11.80;;;;;;;;;;5015024;28;20049;-66
2024/03/01 05:27:56;;;;;;;16.48;11.15;;;;;;;;;;5004626;28;20139;-66
2024/03/01 05:30:23;;;;;;;18.35;11.05;;;;;;;;;;5026969;28;20544;-66
2024/03/01 05:32:51;;;;;;;20.92;12.27;;;;;;;;;;5018033;28;20045;-66
2024/03/01 05:35:18;;;;;;;21.70;11.93;;;;;;;;;;5021371;28;20034;-66
2024/03/01 05:37:44;;;;;;;20.27;11.77;;;;;;;;;;5018026;28;20053;-66
2024/03/01 05:40:14;;;;;;;19.17;12.52;;;;;;;;;;5023305;28;20068;-66
2024/03/01 05:42:41;;;;;;;18.27;11.88;;;;;;;;;;5025305;28;20064;-66
2024/03/01 05:45:08;;;;;;;19.92;11.43;;;;;;;;;;5028944;28;20041;-66
2024/03/01 05:47:34;;;;;;;17.38;11.27;;;;;;;;;;5030296;28;20065;-66
2024/03/01 05:50:01;;;;;;;22.98;12.98;;;;;;;;;;5024369;28;20132;-66
2024/03/01 05:52:27;;;;;;;21.08;13.40;;;;;;;;;;5023592;28;20065;-67
2024/03/01 05:54:53;;;;;;;20.92;12.82;;;;;;;;;;5023433;28;20045;-66
2024/03/01 05:57:19;;;;;;;16.63;11.73;;;;;;;;;;5034086;28;20045;-66
2024/03/01 05:59:45;;;;;;;19.73;13.43;;;;;;;;;;5032270;28;20081;-66
2024/03/01 06:02:12;;;;;;;20.63;12.30;;;;;;;;;;5030436;28;20444;-66
2024/03/01 06:04:39;;;;;;;22.08;13.52;;;;;;;;;;5030108;28;20385;-66
2024/03/01 06:07:06;;;;;;;22.33;13.88;;;;;;;;;;5024741;28;20058;-66
2024/03/01 06:09:32;;;;;;;17.30;12.48;;;;;;;;;;5026713;28;20049;-66
2024/03/01 06:11:58;;;;;;;19.65;12.43;;;;;;;;;;5022943;28;20389;-66
2024/03/01 06:14:24;;;;;;;19.50;12.82;;;;;;;;;;5022587;28;20053;-66
2024/03/01 06:16:51;;;;;;;20.52;11.98;;;;;;;;;;4999704;28;20053;-66
2024/03/01 06:19:18;;;;;;;15.20;8.50;;;;;;;;;;5008247;28;20441;-77
2024/03/01 06:21:44;;;;;;;11.48;7.50;;;;;;;;;;5022072;28;20440;-66
2024/03/01 06:24:10;;;;;;;11.32;6.82;;;;;;;;;;5022598;28;20405;-66
2024/03/01 06:26:38;;;;;;;11.63;6.47;;;;;;;;;;5026324;28;20516;-65
2024/03/01 06:29:04;;;;;;;9.20;5.35;;;;;;;;;;5024072;28;20073;-70
2024/03/01 06:31:31;;;;;;;7.05;3.97;;;;;;;;;;5025321;28;20152;-81
2024/03/01 06:33:57;;;;;;;9.05;3.75;;;;;;;;;;5024965;28;20108;-66
2024/03/01 06:36:23;;;;;;;8.63;4.03;;;;;;;;;;5029521;28;20109;-66
2024/03/01 06:38:50;;;;;;;9.00;3.42;;;;;;;;;;5033617;28;20095;-66
2024/03/01 06:41:17;;;;;;;6.55;3.90;;;;;;;;;;5028414;28;20104;-67
2024/03/01 06:43:43;;;;;;;6.22;2.25;;;;;;;;;;5028538;28;20112;-65
2024/03/01 06:46:09;;;;;;;5.85;1.95;;;;;;;;;;5026189;28;20087;-67
2024/03/01 06:48:35;;;;;;;6.75;1.58;;;;;;;;;;5026725;28;20091;-67
2024/03/01 06:51:02;;;;;;;6.53;1.88;;;;;;;;;;5027393;28;20069;-67
2024/03/01 06:53:28;;;;;;;5.40;1.77;;;;;;;;;;5030518;28;20080;-66
2024/03/01 06:55:55;;;;;;;4.10;1.45;;;;;;;;;;5017713;28;20590;-66
2024/03/01 06:58:21;;;;;;;8.98;1.50;;;;;;;;;;5025757;28;20057;-66
2024/03/01 07:00:48;;;;;;;3.67;1.00;;;;;;;;;;5022870;28;20038;-66
2024/03/01 07:03:14;;;;;;;3.65;1.00;;;;;;;;;;5027759;28;20041;-67
2024/03/01 07:05:40;;;;;;;5.72;0.88;;;;;;;;;;5026480;28;20033;-66
2024/03/01 07:08:07;;;;;;;3.78;1.02;;;;;;;;;;5022169;28;20049;-65
2024/03/01 07:10:33;;;;;;;5.43;1.17;;;;;;;;;;5021990;28;20168;-66
2024/03/01 07:13:00;;;;;;;8.60;1.10;;;;;;;;;;5021342;28;20087;-66
2024/03/01 07:15:27;;;;;;;3.80;0.70;;;;;;;;;;5018001;28;20548;-66
2024/03/01 07:17:55;;;;;;;4.05;1.00;;;;;;;;;;5006214;28;20064;-66
2024/03/01 07:20:22;;;;;;;2.63;0.60;;;;;;;;;;5035771;28;20081;-66
2024/03/01 07:22:49;;;;;;;7.60;0.90;;;;;;;;;;5030640;28;20176;-66
2024/03/01 07:25:15;;;;;;;6.57;0.88;;;;;;;;;;5017254;28;20053;-66
2024/03/01 07:27:41;;;;;;;9.52;1.27;;;;;;;;;;5021345;28;20145;-66
2024/03/01 07:30:09;;;;;;;7.68;1.33;;;;;;;;;;5021541;28;20045;-64
2024/03/01 07:32:35;;;;;;;8.65;1.45;;;;;;;;;;5021108;28;20057;-66
2024/03/01 07:35:05;;;;;;;6.85;1.65;;;;;;;;;;5018553;28;20183;-66
2024/03/01 07:37:32;;;;;;;8.63;1.67;;;;;;;;;;5020035;28;20138;-66
2024/03/01 07:39:58;;;;;;;9.38;1.92;;;;;;;;;;5023573;28;20041;-66
2024/03/01 07:42:25;;;;;;;7.50;1.45;;;;;;;;;;5021216;28;20045;-66
2024/03/01 07:44:51;;;;;;;7.35;1.33;;;;;;;;;;5015571;28;20104;-65
2024/03/01 07:47:17;;;;;;;3.60;1.52;;;;;;;;;;5017740;28;20033;-65
2024/03/01 07:49:43;;;;;;;3.58;1.20;;;;;;;;;;5022343;28;20187;-68
2024/03/01 07:52:10;;;;;;;7.50;1.73;;;;;;;;;;5008574;28;20045;-68
2024/03/01 07:54:36;;;;;;;7.57;1.83;;;;;;;;;;5022429;28;20132;-66
2024/03/01 07:57:03;;;;;;;8.43;2.00;;;;;;;;;;5024289;28;20471;-67
2024/03/01 07:59:29;;;;;;;6.90;2.00;;;;;;;;;;5003194;28;20486;-68
2024/03/01 08:01:55;;;;;;;7.03;1.67;;;;;;;;;;5027215;28;20029;-68
2024/03/01 08:04:22;;;;;;;8.32;2.20;;;;;;;;;;5026132;28;20065;-68
2024/03/01 08:06:48;;;;;;;7.85;2.42;;;;;;;;;;5028702;28;20041;-68
2024/03/01 08:09:18;;;;;;;10.77;1.90;;;;;;;;;;5025270;28;20132;-68
2024/03/01 08:11:45;;;;;;;8.88;2.13;;;;;;;;;;5022405;28;20532;-66
2024/03/01 08:14:22;;;;;;;10.57;2.78;;;;;;;;;;5013780;28;20518;-66
2024/03/01 08:16:51;;;;;;;7.22;2.03;;;;;;;;;;5016755;28;20037;-75
2024/03/01 08:19:17;;;;;;;9.63;1.88;;;;;;;;;;5022320;28;20343;-68
2024/03/01 08:21:43;;;;;;;7.28;2.03;;;;;;;;;;5021533;28;20053;-68
2024/03/01 08:24:10;;;;;;;4.60;1.98;;;;;;;;;;5015994;28;20457;-66
2024/03/01 08:26:36;;;;;;;6.80;1.73;;;;;;;;;;5020896;28;20041;-68
2024/03/01 08:29:03;;;;;;;9.57;2.38;;;;;;;;;;5019705;28;20076;-68
2024/03/01 08:31:33;;;;;;;14.07;1.90;;;;;;;;;;5018080;28;20049;-68
2024/03/01 08:34:05;;;;;;;4.72;1.80;;;;;;;;;;5022021;28;20071;-68
2024/03/01 08:36:31;;;;;;;8.77;2.85;;;;;;;;;;5019053;28;20053;-68
2024/03/01 08:39:00;;;;;;;10.15;1.73;;;;;;;;;;5022131;28;20057;-68
2024/03/01 08:41:28;;;;;;;6.35;1.70;;;;;;;;;;5024250;28;20111;-68
2024/03/01 08:43:57;;;;;;;5.50;1.10;;;;;;;;;;5022601;28;20408;-68
2024/03/01 08:46:30;;;;;;;11.70;1.35;;;;;;;;;;5016510;28;20086;-68
2024/03/01 08:48:56;;;;;;;8.07;2.28;;;;;;;;;;5018010;28;20102;-68
2024/03/01 08:51:22;;;;;;;5.95;1.42;;;;;;;;;;5021756;28;20044;-68
2024/03/01 08:53:50;;;;;;;7.93;1.50;;;;;;;;;;5020459;28;20045;-69
2024/03/01 08:56:18;;;;;;;9.25;1.75;;;;;;;;;;5019528;28;20050;-69
2024/03/01 08:58:44;;;;;;;9.07;1.25;;;;;;;;;;5017455;28;20049;-68
2024/03/01 09:01:29;;;;;;;9.00;2.95;;;;;;;;;;5015338;28;20053;-67
2024/03/01 09:03:55;;;;;;;9.38;1.70;;;;;;;;;;5026247;28;20045;-68
2024/03/01 09:06:21;;;;;;;6.55;1.30;;;;;;;;;;5034981;28;20091;-69
2024/03/01 09:08:48;;;;;;;7.80;1.25;;;;;;;;;;5034980;28;20049;-66
2024/03/01 09:11:19;;;;;;;7.63;1.45;;;;;;;;;;5018757;28;20044;-68
2024/03/01 09:13:45;;;;;;;6.03;1.40;;;;;;;;;;5039079;28;20061;-69
2024/03/01 09:16:18;;;;;;;8.40;1.50;;;;;;;;;;5038483;28;20044;-68
2024/03/01 09:18:47;;;;;;;6.72;1.75;;;;;;;;;;5044055;28;20053;-67
2024/03/01 09:21:36;;;;;;;8.10;1.80;;;;;;;;;;5024104;28;20440;-69
2024/03/01 09:24:03;;;;;;;6.18;2.13;;;;;;;;;;5025944;28;20096;-69
2024/03/01 09:26:30;;;;;;;8.35;1.67;;;;;;;;;;4996187;28;20087;-69
2024/03/01 09:29:02;;;;;;;5.78;1.58;;;;;;;;;;5033657;28;20128;-69
2024/03/01 09:31:31;;;;;;;4.85;1.50;;;;;;;;;;5029425;28;20569;-69
2024/03/01 09:33:58;;;;;;;6.05;2.10;;;;;;;;;;5031595;28;20448;-69
2024/03/01 09:36:24;;;;;;;11.00;2.83;;;;;;;;;;5034390;28;20477;-69
2024/03/01 09:38:54;;;;;;;9.77;3.15;;;;;;;;;;5040646;28;20076;-69
2024/03/01 09:41:27;;;;;;;7.95;2.65;;;;;;;;;;5039255;28;20486;-69
2024/03/01 09:43:59;;;;;;;7.68;3.17;;;;;;;;;;5044144;28;20053;-69
2024/03/01 09:46:37;;;;;;;6.55;3.33;;;;;;;;;;5042369;28;20071;-68
2024/03/01 09:49:09;;;;;;;9.73;3.90;;;;;;;;;;5040332;28;20135;-68
2024/03/01 09:51:36;;;;;;;11.63;3.47;;;;;;;;;;5035409;28;20193;-69
2024/03/01 09:54:08;;;;;;;8.38;2.80;;;;;;;;;;5036792;28;20047;-69
2024/03/01 09:56:44;;;;;;;6.28;3.10;;;;;;;;;;5038132;28;20044;-69
2024/03/01 09:59:10;;;;;;;5.85;2.78;;;;;;;;;;5025429;28;20421;-69
2024/03/01 10:01:38;;;;;;;11.77;3.85;;;;;;;;;;5036607;28;20087;-69
2024/03/01 10:04:12;;;;;;;6.50;2.83;;;;;;;;;;5044279;28;20042;-69
2024/03/01 10:06:46;;;;;;;6.57;4.15;;;;;;;;;;5043334;28;20053;-69
2024/03/01 10:09:19;;;;;;;8.00;2.08;;;;;;;;;;5039043;28;20095;-69
2024/03/01 10:11:45;;;;;;;11.27;2.30;;;;;;;;;;5039293;28;20045;-69
2024/03/01 10:14:18;;;;;;;9.88;1.90;;;;;;;;;;5039260;28;20237;-69
2024/03/01 10:17:01;;;;;;;3.83;1.42;;;;;;;;;;5044595;28;20127;-69
2024/03/01 10:19:35;;;;;;;5.90;1.73;;;;;;;;;;5038778;28;20124;-69
2024/03/01 10:22:08;;;;;;;6.05;1.35;;;;;;;;;;5025868;28;20044;-69
2024/03/01 10:24:43;;;;;;;4.82;1.52;;;;;;;;;;5030175;28;20088;-69
2024/03/01 10:27:21;;;;;;;8.23;2.05;;;;;;;;;;5029217;28;20057;-68
2024/03/01 10:29:56;;;;;;;5.50;1.70;;;;;;;;;;5028037;28;20045;-69
2024/03/01 10:32:26;;;;;;;7.80;1.13;;;;;;;;;;5014641;28;20485;-69
2024/03/01 10:34:58;;;;;;;6.63;1.45;;;;;;;;;;5029944;28;20152;-69
2024/03/01 10:37:35;;;;;;;5.03;1.08;;;;;;;;;;5025055;28;20072;-69
2024/03/01 10:40:07;;;;;;;5.95;1.23;;;;;;;;;;5029272;28;20045;-69
2024/03/01 10:42:36;;;;;;;8.32;1.60;;;;;;;;;;5029665;28;20072;-68
2024/03/01 10:45:18;;;;;;;5.85;2.00;;;;;;;;;;5002100;28;20096;-68
2024/03/01 10:47:45;;;;;;;5.47;1.95;;;;;;;;;;5027718;28;20457;-68
2024/03/01 10:50:20;;;;;;;5.68;1.80;;;;;;;;;;5034466;28;20077;-68
2024/03/01 10:52:57;;;;;;;7.07;2.63;;;;;;;;;;5031356;28;20403;-68
2024/03/01 10:55:24;;;;;;;5.53;1.88;;;;;;;;;;5030834;28;20156;-69
2024/03/01 10:57:55;;;;;;;6.20;1.92;;;;;;;;;;5039462;28;20475;-68
2024/03/01 11:00:26;;;;;;;9.30;2.08;;;;;;;;;;5023523;28;20040;-68
2024/03/01 11:02:59;;;;;;;9.43;2.42;;;;;;;;;;5025667;28;20057;-68
2024/03/01 11:05:28;;;;;;;8.32;2.05;;;;;;;;;;5032563;28;20401;-68
2024/03/01 11:07:57;;;;;;;3.85;1.92;;;;;;;;;;5006353;28;20046;-68
2024/03/01 11:10:32;;;;;;;6.82;1.92;;;;;;;;;;5034646;28;20045;-68
2024/03/01 11:13:01;;;;;;;6.55;1.95;;;;;;;;;;5031570;28;20068;-68
2024/03/01 11:15:29;;;;;;;9.45;2.08;;;;;;;;;;5031166;28;20084;-69
2024/03/01 11:17:55;;;;;;;3.88;1.15;;;;;;;;;;5031923;28;20198;-67
2024/03/01 11:20:23;;;;;;;7.53;1.83;;;;;;;;;;5029490;28;20099;-68
2024/03/01 11:22:55;;;;;;;9.57;2.03;;;;;;;;;;5030758;28;20045;-69
2024/03/01 11:25:23;;;;;;;6.55;2.15;;;;;;;;;;5031900;28;20047;-68
2024/03/01 11:28:00;;;;;;;11.13;2.42;;;;;;;;;;5022874;28;21077;-67
2024/03/01 11:30:29;;;;;;;8.50;1.88;;;;;;;;;;5012198;28;20342;-68
2024/03/01 11:33:01;;;;;;;5.95;2.50;;;;;;;;;;5015556;28;20057;-68
2024/03/01 11:35:38;;;;;;;11.55;2.65;;;;;;;;;;5038849;28;20045;-68
2024/03/01 11:38:13;;;;;;;6.80;2.53;;;;;;;;;;5016555;28;20045;-68
2024/03/01 11:40:56;;;;;;;9.75;3.33;;;;;;;;;;5028518;28;20068;-68
2024/03/01 11:43:38;;;;;;;9.02;2.92;;;;;;;;;;5005799;28;20068;-93
2024/03/01 11:46:06;;;;;;;10.57;2.95;;;;;;;;;;5024687;28;20501;-68
2024/03/01 11:48:40;;;;;;;9.20;2.63;;;;;;;;;;5021608;28;20436;-68
2024/03/01 11:51:07;;;;;;;7.25;2.00;;;;;;;;;;5006984;28;20139;-69
2024/03/01 11:53:42;;;;;;;6.43;2.05;;;;;;;;;;5027713;28;20052;-69
2024/03/01 11:56:24;;;;;;;7.68;2.03;;;;;;;;;;5003581;28;20390;-68
2024/03/01 11:58:58;;;;;;;10.43;2.25;;;;;;;;;;5002821;28;20042;-69
2024/03/01 12:01:34;;;;;;;7.05;2.13;;;;;;;;;;5002850;28;20485;-67
2024/03/01 12:04:03;;;;;;;9.73;2.50;;;;;;;;;;5001083;28;20050;-68
2024/03/01 12:06:40;;;;;;;7.35;2.42;;;;;;;;;;5003633;28;20125;-68
2024/03/01 12:09:14;;;;;;;8.50;2.80;;;;;;;;;;4999427;28;20481;-68
2024/03/01 12:11:40;;;;;;;;;;;;;;;;;;5000752;28;20093;-69
2024/03/01 12:14:10;;;;;;;9.27;2.75;;;;;;;;;;5000613;28;19929;-69
2024/03/01 12:16:36;;;;;;;9.35;3.78;;;;;;;;;;5017491;28;20061;-69
2024/03/01 12:19:10;;;;;;;6.82;2.30;;;;;;;;;;5019396;28;20123;-69
2024/03/01 12:21:37;;;;;;;8.68;2.72;;;;;;;;;;5018830;28;20064;-69
2024/03/01 12:24:12;;;;;;;7.97;2.63;;;;;;;;;;4995803;28;20199;-69
2024/03/01 12:26:49;;;;;;;10.52;2.88;;;;;;;;;;5001270;28;20091;-69
2024/03/01 12:29:29;;;;;;;8.43;2.70;;;;;;;;;;5024120;28;20050;-68
2024/03/01 12:32:00;;;;;;;9.68;2.00;;;;;;;;;;5022216;28;20076;-69
2024/03/01 12:34:26;;;;;;;9.15;1.88;;;;;;;;;;5020326;28;20101;-69
2024/03/01 12:37:06;;;;;;;8.20;2.10;;;;;;;;;;5018752;28;20106;-69
2024/03/01 12:39:33;;;;;;;6.90;2.28;;;;;;;;;;5023733;28;20053;-69
2024/03/01 12:42:07;;;;;;;5.95;2.17;;;;;;;;;;5021504;28;20093;-69
2024/03/01 12:44:43;;;;;;;9.15;2.65;;;;;;;;;;5019441;28;20042;-69
2024/03/01 12:47:31;;;;;;;7.97;2.13;;;;;;;;;;5019295;28;20091;-69
2024/03/01 12:50:03;;;;;;;9.60;2.67;;;;;;;;;;5019405;28;20222;-69
2024/03/01 12:52:39;;;;;;;8.82;2.92;;;;;;;;;;5021021;28;20111;-69
2024/03/01 12:55:06;;;;;;;8.70;2.80;;;;;;;;;;5023599;28;20571;-69
2024/03/01 12:57:36;;;;;;;7.97;3.08;;;;;;;;;;5024125;28;20071;-69
2024/03/01 13:00:13;;;;;;;8.57;2.80;;;;;;;;;;5021912;28;20504;-69
2024/03/01 13:02:48;;;;;;;10.90;2.85;;;;;;;;;;5020311;28;20053;-69
2024/03/01 13:05:15;;;;;;;8.63;3.28;;;;;;;;;;5024678;28;20033;-69
2024/03/01 13:07:41;;;;;;;6.93;2.30;;;;;;;;;;5022050;28;20064;-68
2024/03/01 13:10:13;;;;;;;6.60;2.45;;;;;;;;;;5023335;28;20086;-69
2024/03/01 13:12:43;;;;;;;8.90;2.85;;;;;;;;;;5021245;28;20489;-68
2024/03/01 13:15:16;;;;;;;6.05;2.65;;;;;;;;;;5021116;28;20037;-69
2024/03/01 13:17:44;;;;;;;7.35;2.65;;;;;;;;;;5021587;28;20746;-68
2024/03/01 13:20:28;;;;;;;7.43;2.70;;;;;;;;;;5025124;28;20124;-69
2024/03/01 13:22:59;;;;;;;6.63;2.90;;;;;;;;;;5019689;28;20152;-69
2024/03/01 13:25:31;;;;;;;6.75;3.30;;;;;;;;;;5031750;28;20469;-68
2024/03/01 13:28:02;;;;;;;8.73;3.08;;;;;;;;;;5026942;28;20044;-69
2024/03/01 13:30:30;;;;;;;6.25;3.00;;;;;;;;;;4989128;28;20049;-69
2024/03/01 13:33:08;;;;;;;7.80;3.78;;;;;;;;;;5007352;28;20446;-68
2024/03/01 13:35:37;;;;;;;10.60;3.20;;;;;;;;;;5024372;28;20061;-69
2024/03/01 13:38:04;;;;;;;6.88;3.88;;;;;;;;;;5023340;28;20045;-68
2024/03/01 13:40:31;;;;;;;10.27;3.83;;;;;;;;;;5031584;28;20397;-69
2024/03/01 13:42:59;;;;;;;11.98;3.80;;;;;;;;;;5011211;28;20057;-68
2024/03/01 13:45:27;;;;;;;9.63;3.35;;;;;;;;;;4991741;28;20524;-69
2024/03/01 13:48:04;;;;;;;8.13;4.00;;;;;;;;;;5024357;28;20045;-68
2024/03/01 13:50:35;;;;;;;7.03;3.83;;;;;;;;;;5006235;28;20045;-68
2024/03/01 13:53:04;;;;;;;7.72;3.53;;;;;;;;;;5001147;28;20053;-69
2024/03/01 13:55:31;;;;;;;7.85;3.25;;;;;;;;;;5000155;28;20102;-69
2024/03/01 13:57:59;;;;;;;8.23;3.63;;;;;;;;;;5008043;28;20206;-69
2024/03/01 14:00:25;;;;;;;8.75;3.80;;;;;;;;;;5003939;28;20120;-69
2024/03/01 14:02:51;;;;;;;7.55;3.78;;;;;;;;;;5024028;28;20136;-68
2024/03/01 14:05:18;;;;;;;8.48;3.60;;;;;;;;;;5005525;28;20507;-68
2024/03/01 14:07:46;;;;;;;7.93;3.75;;;;;;;;;;5002619;28;20467;-68
2024/03/01 14:10:12;;;;;;;5.95;3.00;;;;;;;;;;5002522;28;20053;-68
2024/03/01 14:12:39;;;;;;;6.03;2.70;;;;;;;;;;5021067;28;20042;-68
2024/03/01 14:15:12;;;;;;;11.50;3.22;;;;;;;;;;5003599;28;20378;-68
2024/03/01 14:17:39;;;;;;;10.02;3.83;;;;;;;;;;5020753;28;20076;-68
2024/03/01 14:20:11;;;;;;;8.35;2.95;;;;;;;;;;5016777;28;21311;-68
2024/03/01 14:22:39;;;;;;;9.88;3.50;;;;;;;;;;5013393;28;20052;-68
2024/03/01 14:25:05;;;;;;;9.05;4.15;;;;;;;;;;5014892;28;20141;-68
2024/03/01 14:27:32;;;;;;;5.72;2.83;;;;;;;;;;5015894;28;20503;-68
2024/03/01 14:29:58;;;;;;;8.57;3.25;;;;;;;;;;5015429;28;21785;-68
2024/03/01 14:32:25;;;;;;;6.22;3.10;;;;;;;;;;5023866;28;20041;-68
2024/03/01 14:34:52;;;;;;;5.95;2.83;;;;;;;;;;5024808;28;20045;-68
2024/03/01 14:37:31;;;;;;;6.93;2.88;;;;;;;;;;5026001;28;20551;-68
2024/03/01 14:40:08;;;;;;;6.70;2.90;;;;;;;;;;5025863;28;20608;-68